Time;durP1;ratioP1;P1;durP2;ratioP2;P2;SDS_P1;SDS_P2;PMS_P1;PMS_P2;Temp;Humidity;BMP_temperature;BMP_pressure;BME280_temperature;BME280_humidity;BME280_pressure;Samples;Min_cycle;Max_cycle;Signal;HPM_P1;HPM_P2
2020/12/21 00:02:14;;;;;;;0.60;0.52;;;8.30;99.90;;;;;;5096035;28;20162;-76
2020/12/21 00:04:41;;;;;;;1.65;1.55;;;8.20;99.90;;;;;;5095779;28;20280;-76
2020/12/21 00:07:07;;;;;;;1.00;0.98;;;8.10;99.90;;;;;;5095918;28;20166;-77
2020/12/21 00:09:32;;;;;;;9.65;0.95;;;8.20;99.90;;;;;;5095883;28;20563;-75
2020/12/21 00:11:58;;;;;;;7.43;0.73;;;8.10;99.90;;;;;;5095958;28;20197;-76
2020/12/21 00:14:23;;;;;;;0.20;0.20;;;8.10;99.90;;;;;;5095898;28;20186;-76
2020/12/21 00:16:51;;;;;;;0.50;0.50;;;8.10;99.90;;;;;;5095967;28;20158;-75
2020/12/21 00:19:20;;;;;;;32.85;0.65;;;8.20;99.90;;;;;;5095756;28;20532;-74
2020/12/21 00:21:49;;;;;;;6.43;1.05;;;8.10;99.90;;;;;;5095702;28;20162;-74
2020/12/21 00:24:15;;;;;;;8.10;2.45;;;8.10;99.90;;;;;;5095664;28;20194;-74
2020/12/21 00:26:44;;;;;;;0.38;0.38;;;8.10;99.90;;;;;;5095463;28;20263;-76
2020/12/21 00:29:10;;;;;;;2.35;1.23;;;8.20;99.90;;;;;;5095526;28;20209;-74
2020/12/21 00:31:36;;;;;;;0.32;0.32;;;8.30;99.90;;;;;;5095580;28;20170;-75
2020/12/21 00:34:03;;;;;;;0.17;0.17;;;8.40;99.90;;;;;;5095464;28;20190;-77
2020/12/21 00:36:29;;;;;;;0.35;0.30;;;8.40;99.90;;;;;;5095462;28;20143;-75
2020/12/21 00:38:55;;;;;;;0.95;0.95;;;8.40;99.90;;;;;;5095422;28;20174;-75
2020/12/21 00:41:23;;;;;;;0.40;0.40;;;8.30;99.90;;;;;;5095584;28;20265;-73
2020/12/21 00:43:49;;;;;;;1.00;0.75;;;8.40;99.90;;;;;;5075830;28;20186;-76
2020/12/21 00:48:45;;;;;;;0.35;0.35;;;8.50;99.90;;;;;;5072405;28;20214;-76
2020/12/21 00:51:12;;;;;;;1.13;0.77;;;8.50;99.90;;;;;;5056896;28;20167;-76
2020/12/21 00:53:37;;;;;;;0.20;0.20;;;8.50;99.90;;;;;;5075815;28;20751;-77
2020/12/21 00:56:04;;;;;;;0.47;0.47;;;8.40;99.90;;;;;;5076918;28;20166;-77
2020/12/21 00:58:32;;;;;;;0.15;0.15;;;8.50;99.90;;;;;;5094955;28;20162;-77
2020/12/21 01:00:58;;;;;;;25.98;4.07;;;8.50;99.90;;;;;;5094882;28;20257;-77
2020/12/21 01:03:24;;;;;;;0.10;0.10;;;8.60;99.90;;;;;;5094973;28;20158;-77
2020/12/21 01:05:49;;;;;;;6.03;2.05;;;8.40;99.90;;;;;;5094637;28;20234;-76
2020/12/21 01:08:15;;;;;;;0.22;0.22;;;8.50;99.90;;;;;;5094724;28;20608;-76
2020/12/21 01:10:41;;;;;;;0.30;0.30;;;8.30;99.90;;;;;;5094865;28;20614;-76
2020/12/21 01:13:07;;;;;;;1.52;1.42;;;8.40;99.90;;;;;;5094837;28;20539;-76
2020/12/21 01:15:32;;;;;;;5.72;0.80;;;8.30;99.90;;;;;;5094639;28;20696;-77
2020/12/21 01:17:58;;;;;;;0.57;0.57;;;8.30;99.90;;;;;;5094575;28;20201;-76
2020/12/21 01:20:23;;;;;;;0.98;0.75;;;8.40;99.90;;;;;;5094640;28;20246;-77
2020/12/21 01:22:49;;;;;;;0.45;0.45;;;8.50;99.90;;;;;;5094542;28;20169;-77
2020/12/21 01:25:14;;;;;;;6.28;2.47;;;8.60;99.90;;;;;;5094375;28;20186;-76
2020/12/21 01:27:40;;;;;;;1.42;1.40;;;8.60;99.90;;;;;;5094472;28;20177;-76
2020/12/21 01:30:05;;;;;;;0.50;0.50;;;8.60;99.90;;;;;;5094406;28;20197;-77
2020/12/21 01:32:31;;;;;;;2.17;0.95;;;8.60;99.90;;;;;;5094322;28;20200;-76
2020/12/21 01:34:57;;;;;;;0.47;0.47;;;8.60;99.90;;;;;;5094228;28;20734;-76
2020/12/21 01:37:22;;;;;;;6.93;1.95;;;8.50;99.90;;;;;;5076090;28;20636;-76
2020/12/21 01:39:48;;;;;;;4.75;1.20;;;8.80;99.90;;;;;;5094278;28;20182;-76
2020/12/21 01:42:18;;;;;;;1.15;1.08;;;8.70;99.90;;;;;;5075978;28;20696;-77
2020/12/21 01:44:46;;;;;;;19.90;1.75;;;8.70;99.90;;;;;;5094067;28;20190;-76
2020/12/21 01:47:12;;;;;;;0.50;0.50;;;8.70;99.90;;;;;;5094032;28;20213;-77
2020/12/21 01:49:38;;;;;;;0.32;0.32;;;8.80;99.90;;;;;;5093982;28;20206;-77
2020/12/21 01:52:05;;;;;;;0.82;0.82;;;8.90;99.90;;;;;;5094030;28;20164;-77
2020/12/21 01:54:31;;;;;;;0.30;0.30;;;8.80;99.90;;;;;;5093615;28;20189;-77
2020/12/21 01:56:56;;;;;;;2.83;1.38;;;8.90;99.90;;;;;;5075546;28;20214;-76
2020/12/21 01:59:23;;;;;;;3.90;1.15;;;9.00;99.90;;;;;;5093843;28;20185;-76
2020/12/21 02:01:50;;;;;;;0.50;0.50;;;9.10;99.90;;;;;;5093725;28;20169;-76
2020/12/21 02:04:16;;;;;;;0.65;0.65;;;9.10;99.90;;;;;;5093880;28;20201;-76
2020/12/21 02:06:42;;;;;;;0.35;0.35;;;9.10;99.90;;;;;;5075635;28;20303;-77
2020/12/21 02:09:07;;;;;;;0.77;0.77;;;9.00;99.90;;;;;;5093587;28;20241;-77
2020/12/21 02:11:33;;;;;;;0.57;0.57;;;9.10;99.90;;;;;;5093714;28;20172;-76
2020/12/21 02:13:58;;;;;;;0.47;0.47;;;9.20;99.90;;;;;;5093393;28;20196;-76
2020/12/21 02:16:24;;;;;;;0.55;0.55;;;9.30;99.90;;;;;;5093757;28;20174;-77
2020/12/21 02:18:49;;;;;;;0.10;0.10;;;9.10;99.90;;;;;;5093657;28;20174;-76
2020/12/21 02:21:15;;;;;;;0.82;0.82;;;9.00;99.90;;;;;;5093517;28;20616;-77
2020/12/21 02:23:41;;;;;;;0.20;0.20;;;8.80;99.90;;;;;;5093432;28;20186;-76
2020/12/21 02:26:06;;;;;;;0.60;0.60;;;8.90;99.90;;;;;;5093394;28;20169;-77
2020/12/21 02:28:32;;;;;;;0.30;0.30;;;8.90;99.90;;;;;;5093328;28;20691;-77
2020/12/21 02:30:57;;;;;;;1.15;1.08;;;8.90;99.90;;;;;;5093383;28;20624;-77
2020/12/21 02:33:23;;;;;;;2.15;1.63;;;8.90;99.90;;;;;;5093350;28;20170;-77
2020/12/21 02:35:48;;;;;;;0.32;0.32;;;8.90;99.90;;;;;;5093212;28;20261;-77
2020/12/21 02:38:14;;;;;;;0.20;0.20;;;9.00;99.90;;;;;;5093302;28;20177;-76
2020/12/21 02:40:42;;;;;;;0.73;0.73;;;9.20;99.90;;;;;;5093200;28;20158;-76
2020/12/21 02:43:08;;;;;;;0.60;0.60;;;9.00;99.90;;;;;;5093236;28;20186;-78
2020/12/21 02:45:34;;;;;;;1.17;0.70;;;9.00;99.90;;;;;;5093061;28;20240;-76
2020/12/21 02:47:59;;;;;;;6.70;2.95;;;9.00;99.90;;;;;;5074830;28;20241;-77
2020/12/21 02:50:25;;;;;;;0.30;0.30;;;9.10;99.90;;;;;;5093135;28;20287;-77
2020/12/21 02:52:50;;;;;;;0.35;0.35;;;9.10;99.90;;;;;;5093174;28;20151;-76
2020/12/21 02:55:16;;;;;;;0.50;0.50;;;9.00;99.90;;;;;;5093070;28;20233;-76
2020/12/21 02:57:41;;;;;;;0.90;0.82;;;9.10;99.90;;;;;;5093013;28;20161;-77
2020/12/21 03:00:08;;;;;;;0.30;0.30;;;9.30;99.90;;;;;;5093062;28;20162;-77
2020/12/21 03:02:34;;;;;;;8.98;1.05;;;9.20;99.90;;;;;;5074898;28;20651;-76
2020/12/21 03:05:00;;;;;;;1.10;1.00;;;9.20;99.90;;;;;;5092906;28;20189;-76
2020/12/21 03:07:25;;;;;;;0.45;0.45;;;9.20;99.90;;;;;;5094331;28;20176;-77
2020/12/21 03:09:51;;;;;;;0.43;0.43;;;9.10;99.90;;;;;;5096961;28;20189;-77
2020/12/21 03:12:16;;;;;;;2.20;1.38;;;9.00;99.90;;;;;;5097067;28;20663;-77
2020/12/21 03:14:42;;;;;;;0.52;0.52;;;8.90;99.90;;;;;;5096942;28;20188;-77
2020/12/21 03:17:08;;;;;;;0.15;0.15;;;9.00;99.90;;;;;;5096817;28;20178;-78
2020/12/21 03:19:33;;;;;;;8.55;0.90;;;8.90;99.90;;;;;;5097047;28;20158;-77
2020/12/21 03:21:59;;;;;;;0.52;0.52;;;9.00;99.90;;;;;;5096774;28;20178;-77
2020/12/21 03:24:24;;;;;;;0.17;0.17;;;9.00;99.90;;;;;;5078631;28;20189;-77
2020/12/21 03:26:50;;;;;;;9.32;1.08;;;8.90;99.90;;;;;;5096809;28;20680;-76
2020/12/21 03:29:17;;;;;;;0.30;0.30;;;9.00;99.90;;;;;;5096661;28;20229;-76
2020/12/21 03:31:43;;;;;;;0.20;0.20;;;8.90;99.90;;;;;;5096717;28;20253;-76
2020/12/21 03:34:09;;;;;;;0.40;0.40;;;8.90;99.90;;;;;;5096440;28;20240;-76
2020/12/21 03:36:34;;;;;;;0.90;0.90;;;9.00;99.90;;;;;;5096685;28;20168;-76
2020/12/21 03:39:00;;;;;;;0.38;0.38;;;8.90;99.90;;;;;;5096512;28;20166;-77
2020/12/21 03:41:25;;;;;;;0.22;0.22;;;8.80;99.90;;;;;;5078320;28;20170;-77
2020/12/21 03:43:51;;;;;;;1.05;1.05;;;8.90;99.90;;;;;;5096390;28;20217;-77
2020/12/21 03:46:16;;;;;;;0.75;0.75;;;8.90;99.90;;;;;;5078046;28;20178;-77
2020/12/21 03:48:42;;;;;;;0.30;0.30;;;8.90;99.90;;;;;;5096161;28;20225;-76
2020/12/21 03:51:07;;;;;;;0.68;0.68;;;9.00;99.90;;;;;;5096279;28;20199;-76
2020/12/21 03:53:33;;;;;;;0.30;0.30;;;9.00;99.90;;;;;;5096224;28;20162;-76
2020/12/21 03:55:59;;;;;;;0.98;0.88;;;8.90;99.90;;;;;;5096277;28;20222;-77
2020/12/21 03:58:25;;;;;;;2.28;0.73;;;9.00;99.90;;;;;;5078037;28;20508;-77
2020/12/21 04:00:51;;;;;;;0.30;0.30;;;9.00;99.90;;;;;;5096106;28;20165;-76
2020/12/21 04:03:16;;;;;;;6.85;1.98;;;9.20;99.90;;;;;;5096128;28;20155;-76
2020/12/21 04:05:42;;;;;;;0.10;0.10;;;9.30;99.90;;;;;;5096037;28;20186;-76
2020/12/21 04:08:07;;;;;;;0.20;0.20;;;9.20;99.90;;;;;;5095953;28;22069;-76
2020/12/21 04:10:33;;;;;;;0.70;0.70;;;9.20;99.90;;;;;;5077783;28;20166;-76
2020/12/21 04:12:58;;;;;;;0.65;0.65;;;9.10;99.90;;;;;;5095947;28;20169;-76
2020/12/21 04:15:24;;;;;;;2.22;1.48;;;9.00;99.90;;;;;;5077841;28;20268;-77
2020/12/21 04:17:50;;;;;;;0.55;0.55;;;8.90;99.90;;;;;;5095414;28;20190;-76
2020/12/21 04:20:15;;;;;;;0.82;0.82;;;9.00;99.90;;;;;;5096137;28;20204;-76
2020/12/21 04:22:41;;;;;;;0.10;0.10;;;9.00;99.90;;;;;;5095688;28;20172;-76
2020/12/21 04:25:06;;;;;;;0.20;0.20;;;9.20;99.90;;;;;;5095562;28;20197;-76
2020/12/21 04:27:32;;;;;;;0.10;0.10;;;9.40;99.90;;;;;;5095655;28;20223;-76
2020/12/21 04:29:57;;;;;;;3.83;1.33;;;9.50;99.90;;;;;;5095584;28;20560;-76
2020/12/21 04:32:23;;;;;;;0.80;0.80;;;9.40;99.90;;;;;;5095574;28;20501;-76
2020/12/21 04:34:49;;;;;;;0.60;0.60;;;9.50;99.90;;;;;;5095341;28;20547;-76
2020/12/21 04:37:14;;;;;;;3.80;1.55;;;9.30;99.90;;;;;;5095362;28;20158;-76
2020/12/21 04:39:40;;;;;;;0.28;0.28;;;9.10;99.90;;;;;;5095539;28;20154;-77
2020/12/21 04:42:05;;;;;;;3.75;1.13;;;9.00;99.90;;;;;;5095414;28;20557;-76
2020/12/21 04:44:31;;;;;;;0.75;0.75;;;8.80;99.90;;;;;;5095256;28;20186;-76
2020/12/21 04:46:58;;;;;;;0.30;0.30;;;8.80;99.90;;;;;;5076903;28;20241;-76
2020/12/21 04:49:24;;;;;;;0.40;0.40;;;8.90;99.90;;;;;;5095010;28;20213;-76
2020/12/21 04:51:50;;;;;;;5.70;0.98;;;9.00;99.90;;;;;;5095377;28;20549;-76
2020/12/21 04:54:18;;;;;;;1.48;1.38;;;9.00;99.90;;;;;;5095061;28;20182;-76
2020/12/21 04:56:44;;;;;;;0.38;0.38;;;8.90;99.90;;;;;;5094985;28;20173;-76
2020/12/21 04:59:14;;;;;;;0.20;0.20;;;8.70;99.90;;;;;;5076922;28;20260;-76
2020/12/21 05:01:40;;;;;;;17.42;0.95;;;8.70;99.90;;;;;;5095007;28;20268;-76
2020/12/21 05:04:06;;;;;;;2.67;1.23;;;8.80;99.90;;;;;;5094864;28;20253;-76
2020/12/21 05:06:32;;;;;;;2.65;1.15;;;8.70;99.90;;;;;;5094890;28;20155;-76
2020/12/21 05:09:04;;;;;;;0.30;0.30;;;8.70;99.90;;;;;;5076508;28;20228;-76
2020/12/21 05:11:29;;;;;;;0.30;0.30;;;8.90;99.90;;;;;;5076466;28;20252;-76
2020/12/21 05:14:12;;;;;;;0.40;0.40;;;9.00;99.90;;;;;;5094493;28;20724;-76
2020/12/21 05:16:38;;;;;;;0.22;0.22;;;9.20;99.90;;;;;;5094959;28;20227;-76
2020/12/21 05:19:05;;;;;;;4.03;0.85;;;9.10;99.90;;;;;;5094551;28;20478;-76
2020/12/21 05:21:31;;;;;;;1.02;0.73;;;9.10;99.90;;;;;;5094497;28;20166;-76
2020/12/21 05:24:01;;;;;;;0.40;0.40;;;9.20;99.90;;;;;;5094434;28;20997;-76
2020/12/21 05:26:28;;;;;;;0.52;0.52;;;9.30;99.90;;;;;;5094511;28;20174;-76
2020/12/21 05:28:54;;;;;;;0.85;0.75;;;9.10;99.90;;;;;;5094098;28;20729;-76
2020/12/21 05:31:20;;;;;;;0.28;0.28;;;9.20;99.90;;;;;;5093614;28;20158;-77
2020/12/21 05:33:46;;;;;;;0.47;0.47;;;9.40;99.90;;;;;;5094320;28;20181;-76
2020/12/21 05:36:22;;;;;;;3.20;1.48;;;9.30;99.90;;;;;;5094248;28;20165;-76
2020/12/21 05:38:59;;;;;;;3.80;1.70;;;9.20;99.90;;;;;;5094091;28;20244;-76
2020/12/21 05:41:25;;;;;;;0.77;0.77;;;9.30;99.90;;;;;;5094109;28;20625;-76
2020/12/21 05:43:53;;;;;;;0.20;0.20;;;9.20;99.90;;;;;;5075760;28;20197;-76
2020/12/21 05:46:23;;;;;;;0.20;0.20;;;9.40;99.90;;;;;;5093887;28;20150;-76
2020/12/21 05:48:57;;;;;;;12.60;0.85;;;9.40;99.90;;;;;;5094074;28;20532;-76
2020/12/21 05:51:30;;;;;;;2.30;1.05;;;9.40;99.90;;;;;;5093893;28;20527;-76
2020/12/21 05:53:58;;;;;;;1.50;0.63;;;9.50;99.90;;;;;;5093929;28;20193;-76
2020/12/21 05:56:24;;;;;;;12.80;2.20;;;9.50;99.90;;;;;;5093978;28;20162;-76
2020/12/21 05:58:51;;;;;;;0.52;0.52;;;9.40;99.90;;;;;;5093785;28;20730;-77
2020/12/21 06:01:18;;;;;;;1.55;1.38;;;9.60;99.90;;;;;;5075592;28;20199;-76
2020/12/21 06:03:44;;;;;;;0.22;0.22;;;9.70;99.90;;;;;;5093613;28;20150;-76
2020/12/21 06:06:28;;;;;;;6.07;1.33;;;9.70;99.90;;;;;;5075504;28;20613;-76
2020/12/21 06:08:56;;;;;;;0.50;0.50;;;9.60;99.90;;;;;;5093516;28;20642;-76
2020/12/21 06:11:34;;;;;;;20.17;1.27;;;9.80;99.90;;;;;;5075435;28;20632;-76
2020/12/21 06:14:02;;;;;;;0.95;0.30;;;9.60;99.90;;;;;;5093343;28;20189;-76
2020/12/21 06:16:30;;;;;;;0.50;0.50;;;9.60;99.90;;;;;;5093636;28;20261;-76
2020/12/21 06:19:06;;;;;;;0.52;0.52;;;9.50;99.90;;;;;;5075217;28;20260;-77
2020/12/21 06:21:42;;;;;;;1.88;1.70;;;9.60;99.90;;;;;;5093498;28;20557;-77
2020/12/21 06:24:18;;;;;;;0.50;0.50;;;9.60;99.90;;;;;;5075201;28;20212;-78
2020/12/21 06:26:44;;;;;;;0.20;0.20;;;9.70;99.90;;;;;;5093479;28;20149;-79
2020/12/21 06:29:15;;;;;;;1.52;1.13;;;9.60;99.90;;;;;;5093444;28;20668;-83
2020/12/21 06:31:44;;;;;;;19.48;1.23;;;9.70;99.90;;;;;;5075528;28;20311;-84
2020/12/21 06:34:16;;;;;;;23.05;1.10;;;9.60;99.90;;;;;;5074959;28;20185;-80
2020/12/21 06:36:43;;;;;;;0.30;0.30;;;9.70;99.90;;;;;;5093473;28;20245;-74
2020/12/21 06:39:09;;;;;;;0.52;0.52;;;9.80;99.90;;;;;;5093131;28;20658;-75
2020/12/21 06:41:35;;;;;;;4.50;0.50;;;9.70;99.90;;;;;;5093046;28;20273;-75
2020/12/21 06:44:03;;;;;;;1.17;0.95;;;9.70;99.90;;;;;;5092877;28;20667;-77
2020/12/21 06:46:30;;;;;;;0.47;0.47;;;9.70;99.90;;;;;;5092840;28;20253;-75
2020/12/21 06:49:04;;;;;;;0.20;0.20;;;9.70;99.90;;;;;;5093034;28;20197;-74
2020/12/21 06:51:30;;;;;;;0.75;0.75;;;9.90;99.90;;;;;;5092959;28;20218;-74
2020/12/21 06:54:01;;;;;;;0.40;0.40;;;9.70;99.90;;;;;;5092974;28;20177;-74
2020/12/21 06:56:26;;;;;;;0.70;0.70;;;9.80;99.90;;;;;;5074935;28;20170;-74
2020/12/21 06:58:56;;;;;;;8.15;2.13;;;10.00;99.90;;;;;;5093080;28;20187;-81
2020/12/21 07:01:24;;;;;;;0.55;0.55;;;10.20;99.90;;;;;;5108058;22;20193;-86
2020/12/21 07:03:50;;;;;;;4.72;1.00;;;10.20;99.90;;;;;;5092845;28;20545;-81
2020/12/21 07:06:16;;;;;;;0.47;0.47;;;10.20;99.90;;;;;;5093586;28;20158;-83
2020/12/21 07:08:43;;;;;;;0.88;0.88;;;10.20;99.90;;;;;;5074659;28;20202;-78
2020/12/21 07:11:29;;;;;;;0.32;0.30;;;10.20;99.90;;;;;;5092923;28;20166;-79
2020/12/21 07:13:56;;;;;;;0.50;0.50;;;10.30;99.90;;;;;;5092256;28;20236;-79
2020/12/21 07:16:22;;;;;;;1.73;1.00;;;10.30;99.90;;;;;;5092927;28;20576;-80
2020/12/21 07:18:48;;;;;;;0.35;0.35;;;10.20;99.90;;;;;;5092982;28;20245;-79
2020/12/21 07:21:15;;;;;;;0.35;0.35;;;10.20;99.90;;;;;;5092824;28;20196;-79
2020/12/21 07:23:41;;;;;;;0.50;0.50;;;10.30;99.90;;;;;;5092635;28;20583;-80
2020/12/21 07:26:08;;;;;;;0.73;0.55;;;10.30;99.90;;;;;;5092949;28;20299;-80
2020/12/21 07:28:34;;;;;;;0.20;0.20;;;10.20;99.90;;;;;;5092600;28;20198;-80
2020/12/21 07:31:12;;;;;;;0.68;0.40;;;10.20;99.90;;;;;;5074615;28;20184;-80
2020/12/21 07:33:52;;;;;;;0.50;0.50;;;9.90;99.90;;;;;;5074455;28;20240;-81
2020/12/21 07:36:21;;;;;;;0.20;0.20;;;9.90;99.90;;;;;;5092608;28;20154;-81
2020/12/21 07:38:47;;;;;;;0.20;0.20;;;9.90;99.90;;;;;;5092674;28;20169;-80
2020/12/21 07:41:14;;;;;;;0.40;0.40;;;10.00;99.90;;;;;;5093048;28;20170;-82
2020/12/21 07:43:43;;;;;;;0.20;0.20;;;10.20;99.90;;;;;;5093112;28;20193;-81
2020/12/21 07:46:20;;;;;;;3.80;1.33;;;10.20;99.90;;;;;;5092513;28;20157;-75
2020/12/21 07:48:47;;;;;;;0.30;0.30;;;10.30;99.90;;;;;;5091291;28;20197;-75
2020/12/21 07:51:15;;;;;;;1.58;1.48;;;10.20;99.90;;;;;;5092203;28;20173;-77
2020/12/21 07:53:41;;;;;;;0.32;0.32;;;10.20;99.90;;;;;;5093986;28;20247;-76
2020/12/21 07:56:06;;;;;;;0.50;0.50;;;10.10;99.90;;;;;;5096169;28;20253;-77
2020/12/21 07:58:35;;;;;;;0.25;0.22;;;10.20;99.90;;;;;;5095922;28;20181;-78
2020/12/21 08:01:01;;;;;;;0.40;0.40;;;10.20;99.90;;;;;;5095637;28;20170;-76
2020/12/21 08:03:30;;;;;;;0.95;0.70;;;10.10;99.90;;;;;;5095809;28;20750;-75
2020/12/21 08:06:10;;;;;;;11.70;1.13;;;10.10;99.90;;;;;;5095023;28;20212;-76
2020/12/21 08:08:37;;;;;;;4.97;0.60;;;10.10;99.90;;;;;;5094772;28;20201;-76
2020/12/21 08:11:04;;;;;;;0.30;0.30;;;10.00;99.90;;;;;;5094101;28;20177;-79
2020/12/21 08:13:29;;;;;;;0.43;0.28;;;9.90;99.90;;;;;;5095961;28;20158;-81
2020/12/21 08:16:06;;;;;;;5.70;0.82;;;9.90;99.90;;;;;;5095797;28;20193;-78
2020/12/21 08:18:32;;;;;;;0.80;0.73;;;10.00;99.90;;;;;;5095589;28;20181;-80
2020/12/21 08:20:57;;;;;;;0.55;0.55;;;10.20;99.90;;;;;;5095628;28;20629;-80
2020/12/21 08:23:32;;;;;;;0.22;0.22;;;10.20;99.90;;;;;;5095340;28;20609;-80
2020/12/21 08:25:59;;;;;;;4.53;0.50;;;10.30;99.90;;;;;;5095398;28;20213;-81
2020/12/21 08:28:37;;;;;;;3.10;1.48;;;10.10;99.90;;;;;;5095578;28;20193;-80
2020/12/21 08:31:11;;;;;;;0.38;0.38;;;10.10;99.90;;;;;;5077188;28;20701;-80
2020/12/21 08:33:38;;;;;;;0.38;0.38;;;10.10;99.90;;;;;;5095275;28;20149;-77
2020/12/21 08:36:23;;;;;;;0.30;0.30;;;10.00;99.90;;;;;;5095275;28;20567;-77
2020/12/21 08:38:50;;;;;;;0.55;0.55;;;10.10;99.90;;;;;;5095162;28;20174;-76
2020/12/21 08:41:16;;;;;;;0.80;0.80;;;10.20;99.90;;;;;;5094934;28;20169;-76
2020/12/21 08:43:42;;;;;;;0.47;0.38;;;10.10;99.90;;;;;;5095074;28;20554;-77
2020/12/21 08:46:09;;;;;;;0.30;0.30;;;10.10;99.90;;;;;;5096983;28;20168;-79
2020/12/21 08:48:42;;;;;;;0.80;0.63;;;10.10;99.90;;;;;;5095370;28;20197;-83
2020/12/21 08:51:09;;;;;;;0.47;0.47;;;10.20;99.90;;;;;;5095676;28;20193;-80
2020/12/21 08:53:35;;;;;;;0.50;0.50;;;10.20;99.90;;;;;;5095045;28;20690;-79
2020/12/21 08:56:09;;;;;;;5.78;1.98;;;10.30;99.90;;;;;;5095248;28;20166;-80
2020/12/21 08:58:34;;;;;;;0.40;0.40;;;10.20;99.90;;;;;;5094884;28;20532;-82
2020/12/21 09:01:04;;;;;;;0.32;0.32;;;10.20;99.90;;;;;;5094892;28;20173;-79
2020/12/21 09:03:29;;;;;;;1.33;0.88;;;10.20;99.90;;;;;;5094853;28;20221;-82
2020/12/21 09:05:56;;;;;;;0.30;0.30;;;10.30;99.90;;;;;;5093981;28;20182;-79
2020/12/21 09:08:22;;;;;;;0.40;0.40;;;10.30;99.90;;;;;;5095666;28;20674;-84
2020/12/21 09:10:48;;;;;;;0.10;0.10;;;10.20;99.90;;;;;;5095508;28;20154;-83
2020/12/21 09:13:13;;;;;;;0.20;0.20;;;10.30;99.90;;;;;;5095090;28;20624;-83
2020/12/21 09:15:39;;;;;;;0.20;0.20;;;10.10;99.90;;;;;;5095201;28;20213;-81
2020/12/21 09:18:05;;;;;;;0.38;0.38;;;10.10;99.90;;;;;;5077165;28;20161;-82
2020/12/21 09:20:30;;;;;;;0.10;0.10;;;10.10;99.90;;;;;;5095504;28;20166;-80
2020/12/21 09:22:56;;;;;;;0.20;0.20;;;10.00;99.90;;;;;;5094285;28;20162;-81
2020/12/21 09:25:22;;;;;;;0.73;0.43;;;10.00;99.90;;;;;;5094217;28;20193;-79
2020/12/21 09:27:48;;;;;;;2.38;0.55;;;10.10;99.90;;;;;;5094342;28;20467;-81
2020/12/21 09:30:13;;;;;;;0.20;0.20;;;10.20;99.90;;;;;;5094379;28;20197;-81
2020/12/21 09:32:39;;;;;;;0.20;0.20;;;10.10;99.90;;;;;;5094721;28;20182;-79
2020/12/21 09:35:04;;;;;;;0.20;0.20;;;10.20;99.90;;;;;;5094175;28;20269;-78
2020/12/21 09:37:30;;;;;;;0.38;0.38;;;10.20;99.90;;;;;;5094390;28;20154;-80
2020/12/21 09:39:56;;;;;;;11.05;1.38;;;10.20;99.90;;;;;;5076013;28;20209;-80
2020/12/21 09:42:21;;;;;;;0.47;0.47;;;10.20;99.90;;;;;;5075571;28;20596;-79
2020/12/21 09:44:49;;;;;;;0.20;0.20;;;10.30;99.90;;;;;;5094068;28;20667;-81
2020/12/21 09:47:15;;;;;;;0.30;0.30;;;10.30;99.90;;;;;;5075729;28;20223;-81
2020/12/21 09:49:41;;;;;;;0.47;0.47;;;10.40;99.90;;;;;;5093897;28;20727;-80
2020/12/21 09:52:07;;;;;;;0.20;0.20;;;10.40;99.90;;;;;;5075645;28;20172;-80
2020/12/21 09:54:32;;;;;;;0.20;0.20;;;10.20;99.90;;;;;;5093897;28;20200;-79
2020/12/21 09:56:58;;;;;;;0.22;0.22;;;10.20;99.90;;;;;;5093822;28;20158;-78
2020/12/21 09:59:23;;;;;;;0.15;0.15;;;10.30;99.90;;;;;;5093777;28;20609;-78
2020/12/21 10:01:50;;;;;;;0.30;0.30;;;10.40;99.90;;;;;;5093730;28;20209;-78
2020/12/21 10:04:15;;;;;;;1.15;1.05;;;10.40;99.90;;;;;;5093632;28;20272;-79
2020/12/21 10:06:47;;;;;;;0.30;0.30;;;10.30;99.90;;;;;;5075517;28;20212;-79
2020/12/21 10:09:13;;;;;;;0.28;0.28;;;10.40;99.90;;;;;;5093599;28;20200;-78
2020/12/21 10:11:38;;;;;;;0.70;0.70;;;10.30;99.90;;;;;;5093472;28;20170;-78
2020/12/21 10:14:04;;;;;;;0.32;0.32;;;10.20;99.90;;;;;;5088785;28;20185;-75
2020/12/21 10:16:29;;;;;;;0.28;0.28;;;10.00;99.90;;;;;;5073471;28;20204;-79
2020/12/21 10:18:55;;;;;;;0.20;0.20;;;10.10;99.90;;;;;;5082062;28;20178;-77
2020/12/21 10:21:21;;;;;;;0.38;0.38;;;10.00;99.90;;;;;;5092868;28;20166;-78
2020/12/21 10:23:46;;;;;;;0.20;0.20;;;10.20;99.90;;;;;;5080755;28;20170;-78
2020/12/21 10:26:12;;;;;;;0.20;0.20;;;10.10;99.90;;;;;;5072036;28;20208;-79
2020/12/21 10:28:38;;;;;;;0.10;0.10;;;10.10;99.90;;;;;;5077186;28;20286;-80
2020/12/21 10:31:03;;;;;;;0.63;0.63;;;10.10;99.90;;;;;;5072317;28;20178;-79
2020/12/21 10:33:29;;;;;;;0.10;0.10;;;10.20;99.90;;;;;;5092294;28;20195;-81
2020/12/21 10:35:54;;;;;;;0.30;0.30;;;10.10;99.90;;;;;;5091960;28;20276;-81
2020/12/21 10:38:20;;;;;;;0.20;0.20;;;10.00;99.90;;;;;;5091842;28;20162;-80
2020/12/21 10:40:46;;;;;;;1.48;1.13;;;10.10;99.90;;;;;;5092223;28;20201;-82
2020/12/21 10:43:11;;;;;;;0.20;0.20;;;10.20;99.90;;;;;;5092779;28;20609;-80
2020/12/21 10:45:38;;;;;;;0.20;0.20;;;10.00;99.90;;;;;;5082247;28;20202;-82
2020/12/21 10:48:04;;;;;;;0.30;0.30;;;10.00;99.90;;;;;;5071919;28;20170;-78
2020/12/21 10:50:30;;;;;;;0.77;0.77;;;10.10;99.90;;;;;;5073214;28;20209;-79
2020/12/21 10:52:55;;;;;;;0.43;0.43;;;10.30;99.90;;;;;;5072562;28;20169;-78
2020/12/21 10:55:21;;;;;;;0.20;0.20;;;10.20;99.90;;;;;;5072243;28;20717;-80
2020/12/21 10:57:47;;;;;;;0.28;0.28;;;10.30;99.90;;;;;;5084977;28;20667;-76
2020/12/21 11:00:12;;;;;;;1.15;0.52;;;10.40;99.90;;;;;;5092131;28;20634;-80
2020/12/21 11:02:38;;;;;;;0.10;0.10;;;10.30;99.90;;;;;;5091552;28;20218;-76
2020/12/21 11:05:04;;;;;;;0.10;0.10;;;10.40;99.90;;;;;;5092189;28;20709;-81
2020/12/21 11:07:31;;;;;;;0.10;0.10;;;10.30;99.90;;;;;;5092101;28;20220;-76
2020/12/21 11:09:57;;;;;;;0.10;0.10;;;10.20;99.90;;;;;;5092076;28;20201;-82
2020/12/21 11:12:23;;;;;;;0.20;0.20;;;10.20;99.90;;;;;;5092828;28;20166;-81
2020/12/21 11:14:50;;;;;;;0.30;0.30;;;10.20;99.90;;;;;;5082892;28;20264;-82
2020/12/21 11:17:16;;;;;;;0.20;0.20;;;10.20;99.90;;;;;;5054760;28;20502;-81
2020/12/21 11:19:41;;;;;;;0.10;0.10;;;10.30;99.90;;;;;;5071787;28;20162;-76
2020/12/21 11:22:07;;;;;;;0.20;0.20;;;10.20;99.90;;;;;;5072042;28;20178;-76
2020/12/21 11:24:32;;;;;;;1.52;0.47;;;10.00;99.90;;;;;;5071586;28;20187;-78
2020/12/21 11:26:58;;;;;;;0.20;0.20;;;10.00;99.90;;;;;;5073339;28;20173;-76
2020/12/21 11:29:24;;;;;;;0.20;0.20;;;10.10;99.90;;;;;;5076243;28;20288;-76
2020/12/21 11:31:49;;;;;;;1.30;0.55;;;10.20;99.90;;;;;;5096163;28;20218;-76
2020/12/21 11:34:15;;;;;;;0.30;0.30;;;10.20;99.90;;;;;;5096026;28;20207;-76
2020/12/21 11:36:42;;;;;;;0.38;0.38;;;10.10;99.90;;;;;;5096327;28;20165;-77
2020/12/21 11:39:08;;;;;;;0.20;0.20;;;10.20;99.90;;;;;;5096170;28;20158;-78
2020/12/21 11:41:33;;;;;;;0.30;0.30;;;10.10;99.90;;;;;;5096004;28;20173;-78
2020/12/21 11:44:00;;;;;;;0.10;0.10;;;10.30;99.90;;;;;;5095980;28;20231;-75
2020/12/21 11:46:37;;;;;;;0.10;0.10;;;10.20;99.90;;;;;;5095657;28;20216;-75
2020/12/21 11:49:03;;;;;;;0.30;0.30;;;10.20;99.90;;;;;;5096168;28;20194;-74
2020/12/21 11:51:29;;;;;;;0.22;0.22;;;10.20;99.90;;;;;;5096155;28;20188;-75
2020/12/21 11:53:55;;;;;;;0.10;0.10;;;10.30;99.90;;;;;;5095721;28;20178;-75
2020/12/21 11:56:21;;;;;;;0.10;0.10;;;10.30;99.90;;;;;;5095847;28;20256;-76
2020/12/21 11:58:47;;;;;;;0.40;0.40;;;10.40;99.90;;;;;;5095648;28;20204;-74
2020/12/21 12:01:15;;;;;;;0.20;0.20;;;10.30;99.90;;;;;;5095259;28;20165;-74
2020/12/21 12:03:41;;;;;;;0.20;0.20;;;10.30;99.90;;;;;;5077154;28;20216;-73
2020/12/21 12:06:06;;;;;;;3.20;0.95;;;10.30;99.90;;;;;;5095614;28;20162;-76
2020/12/21 12:08:33;;;;;;;0.32;0.25;;;10.10;99.90;;;;;;5095207;28;20197;-75
2020/12/21 12:10:59;;;;;;;0.20;0.20;;;10.20;99.90;;;;;;5094147;28;20170;-74
2020/12/21 12:13:25;;;;;;;0.20;0.20;;;10.10;99.90;;;;;;5094660;28;20178;-74
2020/12/21 12:15:51;;;;;;;0.10;0.10;;;10.10;99.90;;;;;;5094683;28;20196;-74
2020/12/21 12:18:16;;;;;;;0.20;0.20;;;10.20;99.90;;;;;;5094589;28;20166;-75
2020/12/21 12:20:42;;;;;;;0.55;0.55;;;10.20;99.90;;;;;;5095130;28;20204;-75
2020/12/21 12:23:07;;;;;;;0.10;0.10;;;10.20;99.90;;;;;;5095468;28;20224;-77
2020/12/21 12:25:33;;;;;;;0.10;0.10;;;10.10;99.90;;;;;;5095238;28;20525;-74
2020/12/21 12:27:59;;;;;;;0.20;0.20;;;10.00;99.90;;;;;;5095252;28;20173;-73
2020/12/21 12:30:25;;;;;;;0.10;0.10;;;10.00;99.90;;;;;;5094544;28;20343;-77
2020/12/21 12:32:50;;;;;;;0.20;0.20;;;9.80;99.90;;;;;;5093053;28;20197;-77
2020/12/21 12:35:16;;;;;;;0.10;0.10;;;9.90;99.90;;;;;;5061672;28;20206;-75
2020/12/21 12:37:41;;;;;;;0.20;0.20;;;10.00;99.90;;;;;;5074333;28;20641;-73
2020/12/21 12:40:07;;;;;;;0.10;0.10;;;10.00;99.90;;;;;;5074603;28;20215;-74
2020/12/21 12:42:33;;;;;;;0.30;0.30;;;10.10;99.90;;;;;;5057028;28;20163;-76
2020/12/21 12:44:59;;;;;;;1.17;0.30;;;10.00;99.90;;;;;;5074930;28;20182;-76
2020/12/21 12:47:25;;;;;;;0.20;0.20;;;10.00;99.90;;;;;;5074195;28;20165;-76
2020/12/21 12:49:50;;;;;;;0.10;0.10;;;10.10;99.90;;;;;;5074397;28;20723;-78
2020/12/21 12:52:16;;;;;;;0.20;0.20;;;10.20;99.90;;;;;;5075926;28;20167;-76
2020/12/21 12:54:41;;;;;;;0.15;0.15;;;10.20;99.90;;;;;;5093584;28;20292;-77